sensor_id;sensor_type;location;lat;lon;timestamp;pressure;altitude;pressure_sealevel;temperature;humidity
42621;BME280;28252;53.336;-6.298;2023-04-07T00:00:34;101536.19;;;21.07;100.00
42621;BME280;28252;53.336;-6.298;2023-04-07T00:01:11;101537.91;;;21.08;100.00
42621;BME280;28252;53.336;-6.298;2023-04-07T00:01:47;101537.06;;;21.08;100.00
42621;BME280;28252;53.336;-6.298;2023-04-07T00:02:21;101537.91;;;21.08;100.00
42621;BME280;28252;53.336;-6.298;2023-04-07T00:02:56;101540.59;;;21.08;100.00
42621;BME280;28252;53.336;-6.298;2023-04-07T00:03:29;101550.44;;;21.10;100.00
42621;BME280;28252;53.336;-6.298;2023-04-07T00:04:07;101536.19;;;21.07;100.00
42621;BME280;28252;53.336;-6.298;2023-04-07T00:04:38;101543.31;;;21.08;100.00
42621;BME280;28252;53.336;-6.298;2023-04-07T00:05:14;101543.31;;;21.08;100.00
42621;BME280;28252;53.336;-6.298;2023-04-07T00:05:50;101543.31;;;21.08;100.00
42621;BME280;28252;53.336;-6.298;2023-04-07T00:06:29;101543.31;;;21.08;100.00
42621;BME280;28252;53.336;-6.298;2023-04-07T00:07:02;101543.31;;;21.08;100.00
42621;BME280;28252;53.336;-6.298;2023-04-07T00:07:35;101544.16;;;21.09;100.00
42621;BME280;28252;53.336;-6.298;2023-04-07T00:08:06;101543.31;;;21.08;100.00
42621;BME280;28252;53.336;-6.298;2023-04-07T00:08:39;101543.31;;;21.08;100.00
42621;BME280;28252;53.336;-6.298;2023-04-07T00:09:13;101539.63;;;21.10;100.00
42621;BME280;28252;53.336;-6.298;2023-04-07T00:09:46;101539.63;;;21.10;100.00
42621;BME280;28252;53.336;-6.298;2023-04-07T00:10:19;101541.44;;;21.09;100.00
42621;BME280;28252;53.336;-6.298;2023-04-07T00:10:54;101543.31;;;21.08;100.00
42621;BME280;28252;53.336;-6.298;2023-04-07T00:11:25;101537.06;;;21.08;100.00
42621;BME280;28252;53.336;-6.298;2023-04-07T00:11:59;101541.59;;;21.07;100.00
42621;BME280;28252;53.336;-6.298;2023-04-07T00:12:33;101535.34;;;21.07;100.00
42621;BME280;28252;53.336;-6.298;2023-04-07T00:13:06;101547.03;;;21.07;100.00
42621;BME280;28252;53.336;-6.298;2023-04-07T00:13:39;101539.91;;;21.06;100.00
42621;BME280;28252;53.336;-6.298;2023-04-07T00:14:13;101545.34;;;21.06;100.00
42621;BME280;28252;53.336;-6.298;2023-04-07T00:14:48;101540.91;;;21.05;100.00
42621;BME280;28252;53.336;-6.298;2023-04-07T00:15:24;101543.63;;;21.05;100.00
42621;BME280;28252;53.336;-6.298;2023-04-07T00:15:58;101534.66;;;21.05;100.00
42621;BME280;28252;53.336;-6.298;2023-04-07T00:16:34;101543.63;;;21.05;100.00
42621;BME280;28252;53.336;-6.298;2023-04-07T00:17:09;101541.06;;;21.04;100.00
42621;BME280;28252;53.336;-6.298;2023-04-07T00:17:42;101541.94;;;21.04;100.00
42621;BME280;28252;53.336;-6.298;2023-04-07T00:18:15;101543.78;;;21.04;100.00
42621;BME280;28252;53.336;-6.298;2023-04-07T00:18:54;101542.94;;;21.03;100.00
42621;BME280;28252;53.336;-6.298;2023-04-07T00:19:27;101543.91;;;21.02;100.00
42621;BME280;28252;53.336;-6.298;2023-04-07T00:20:00;101545.78;;;21.02;100.00
42621;BME280;28252;53.336;-6.298;2023-04-07T00:20:36;101549.34;;;21.02;100.00
42621;BME280;28252;53.336;-6.298;2023-04-07T00:21:09;101543.91;;;21.02;100.00
42621;BME280;28252;53.336;-6.298;2023-04-07T00:21:41;101549.34;;;21.02;100.00
42621;BME280;28252;53.336;-6.298;2023-04-07T00:22:16;101537.66;;;21.02;100.00
42621;BME280;28252;53.336;-6.298;2023-04-07T00:22:47;101542.25;;;21.01;100.00
42621;BME280;28252;53.336;-6.298;2023-04-07T00:23:18;101538.50;;;21.02;100.00
42621;BME280;28252;53.336;-6.298;2023-04-07T00:23:52;101542.25;;;21.01;100.00
42621;BME280;28252;53.336;-6.298;2023-04-07T00:24:23;101547.66;;;21.01;100.00
42621;BME280;28252;53.336;-6.298;2023-04-07T00:24:54;101536.81;;;21.01;100.00
42621;BME280;28252;53.336;-6.298;2023-04-07T00:25:32;101539.53;;;21.01;100.00
42621;BME280;28252;53.336;-6.298;2023-04-07T00:26:09;101539.53;;;21.01;100.00
42621;BME280;28252;53.336;-6.298;2023-04-07T00:26:46;101536.81;;;21.01;100.00
42621;BME280;28252;53.336;-6.298;2023-04-07T00:27:24;101544.06;;;21.01;100.00
42621;BME280;28252;53.336;-6.298;2023-04-07T00:28:00;101536.81;;;21.01;100.00
42621;BME280;28252;53.336;-6.298;2023-04-07T00:28:33;101543.09;;;21.02;100.00
42621;BME280;28252;53.336;-6.298;2023-04-07T00:29:04;101538.66;;;21.01;100.00
42621;BME280;28252;53.336;-6.298;2023-04-07T00:29:36;101534.25;;;21.00;100.00
42621;BME280;28252;53.336;-6.298;2023-04-07T00:30:07;101537.81;;;21.00;100.00
42621;BME280;28252;53.336;-6.298;2023-04-07T00:30:40;101540.53;;;21.00;100.00
42621;BME280;28252;53.336;-6.298;2023-04-07T00:31:16;101535.09;;;21.00;100.00
42621;BME280;28252;53.336;-6.298;2023-04-07T00:31:49;101534.25;;;21.00;100.00
42621;BME280;28252;53.336;-6.298;2023-04-07T00:32:21;101540.53;;;21.00;100.00
42621;BME280;28252;53.336;-6.298;2023-04-07T00:32:54;101533.41;;;20.99;100.00
42621;BME280;28252;53.336;-6.298;2023-04-07T00:33:29;101538.81;;;20.99;100.00
42621;BME280;28252;53.336;-6.298;2023-04-07T00:34:04;101543.38;;;20.99;100.00
42621;BME280;28252;53.336;-6.298;2023-04-07T00:34:37;101537.13;;;20.98;100.00
42621;BME280;28252;53.336;-6.298;2023-04-07T00:35:11;101538.81;;;20.99;100.00
42621;BME280;28252;53.336;-6.298;2023-04-07T00:35:46;101537.97;;;20.99;100.00
42621;BME280;28252;53.336;-6.298;2023-04-07T00:36:18;101540.81;;;20.97;100.00
42621;BME280;28252;53.336;-6.298;2023-04-07T00:36:51;101541.69;;;20.98;100.00
42621;BME280;28252;53.336;-6.298;2023-04-07T00:37:22;101534.56;;;20.97;100.00
42621;BME280;28252;53.336;-6.298;2023-04-07T00:37:55;101535.41;;;20.97;100.00
42621;BME280;28252;53.336;-6.298;2023-04-07T00:38:32;101537.13;;;20.98;100.00
42621;BME280;28252;53.336;-6.298;2023-04-07T00:39:05;101535.41;;;20.97;100.00
42621;BME280;28252;53.336;-6.298;2023-04-07T00:39:38;101533.56;;;20.98;100.00
42621;BME280;28252;53.336;-6.298;2023-04-07T00:40:11;101539.84;;;20.98;100.00
42621;BME280;28252;53.336;-6.298;2023-04-07T00:40:47;101538.81;;;20.99;100.00
42621;BME280;28252;53.336;-6.298;2023-04-07T00:41:20;101535.25;;;20.99;100.00
42621;BME280;28252;53.336;-6.298;2023-04-07T00:41:54;101539.84;;;20.98;100.00
42621;BME280;28252;53.336;-6.298;2023-04-07T00:42:26;101530.00;;;20.97;100.00
42621;BME280;28252;53.336;-6.298;2023-04-07T00:43:01;101532.72;;;20.97;100.00
42621;BME280;28252;53.336;-6.298;2023-04-07T00:43:35;101534.56;;;20.97;100.00
42621;BME280;28252;53.336;-6.298;2023-04-07T00:44:06;101539.00;;;20.98;100.00
42621;BME280;28252;53.336;-6.298;2023-04-07T00:44:42;101532.72;;;20.97;100.00
42621;BME280;28252;53.336;-6.298;2023-04-07T00:45:13;101530.88;;;20.98;100.00
42621;BME280;28252;53.336;-6.298;2023-04-07T00:45:44;101533.56;;;20.98;100.00
42621;BME280;28252;53.336;-6.298;2023-04-07T00:46:22;101537.13;;;20.98;100.00
42621;BME280;28252;53.336;-6.298;2023-04-07T00:46:54;101530.69;;;20.99;100.00
42621;BME280;28252;53.336;-6.298;2023-04-07T00:47:29;101538.81;;;20.99;100.00
42621;BME280;28252;53.336;-6.298;2023-04-07T00:48:03;101533.41;;;20.99;100.00
42621;BME280;28252;53.336;-6.298;2023-04-07T00:48:39;101533.41;;;20.99;100.00
42621;BME280;28252;53.336;-6.298;2023-04-07T00:49:14;101529.84;;;20.99;100.00
42621;BME280;28252;53.336;-6.298;2023-04-07T00:49:49;101534.41;;;20.98;100.00
42621;BME280;28252;53.336;-6.298;2023-04-07T00:50:22;101533.56;;;20.98;100.00
42621;BME280;28252;53.336;-6.298;2023-04-07T00:50:58;101534.41;;;20.98;100.00
42621;BME280;28252;53.336;-6.298;2023-04-07T00:51:34;101534.41;;;20.98;100.00
42621;BME280;28252;53.336;-6.298;2023-04-07T00:52:52;101533.41;;;20.99;100.00
42621;BME280;28252;53.336;-6.298;2023-04-07T00:53:24;101531.72;;;20.98;100.00
42621;BME280;28252;53.336;-6.298;2023-04-07T00:53:55;101531.72;;;20.98;100.00
42621;BME280;28252;53.336;-6.298;2023-04-07T00:54:33;101536.28;;;20.98;100.00
42621;BME280;28252;53.336;-6.298;2023-04-07T00:55:08;101538.81;;;20.99;100.00
42621;BME280;28252;53.336;-6.298;2023-04-07T00:55:39;101540.81;;;20.97;100.00
42621;BME280;28252;53.336;-6.298;2023-04-07T00:56:15;101535.41;;;20.97;100.00
42621;BME280;28252;53.336;-6.298;2023-04-07T00:56:48;101530.88;;;20.98;100.00
42621;BME280;28252;53.336;-6.298;2023-04-07T00:57:21;101535.41;;;20.97;100.00
42621;BME280;28252;53.336;-6.298;2023-04-07T00:57:59;101536.28;;;20.98;100.00
42621;BME280;28252;53.336;-6.298;2023-04-07T00:58:32;101542.53;;;20.98;100.00
42621;BME280;28252;53.336;-6.298;2023-04-07T00:59:08;101546.25;;;20.97;100.00
42621;BME280;28252;53.336;-6.298;2023-04-07T00:59:43;101537.28;;;20.97;100.00
42621;BME280;28252;53.336;-6.298;2023-04-07T01:00:21;101536.44;;;20.96;100.00
42621;BME280;28252;53.336;-6.298;2023-04-07T01:01:02;101529.47;;;20.94;100.00
42621;BME280;28252;53.336;-6.298;2023-04-07T01:01:43;101540.28;;;20.94;100.00
42621;BME280;28252;53.336;-6.298;2023-04-07T01:02:32;101541.13;;;20.94;100.00
42621;BME280;28252;53.336;-6.298;2023-04-07T01:03:10;101542.16;;;20.93;100.00
42621;BME280;28252;53.336;-6.298;2023-04-07T01:03:45;101532.16;;;20.94;100.00
42621;BME280;28252;53.336;-6.298;2023-04-07T01:04:26;101534.03;;;20.93;100.00
42621;BME280;28252;53.336;-6.298;2023-04-07T01:05:09;101532.31;;;20.92;100.00
42621;BME280;28252;53.336;-6.298;2023-04-07T01:06:19;101535.03;;;20.92;100.00
42621;BME280;28252;53.336;-6.298;2023-04-07T01:06:58;101536.06;;;20.91;100.00
42621;BME280;28252;53.336;-6.298;2023-04-07T01:07:57;101537.72;;;20.92;100.00
42621;BME280;28252;53.336;-6.298;2023-04-07T01:08:56;101530.63;;;20.91;100.00
42621;BME280;28252;53.336;-6.298;2023-04-07T01:10:03;101526.91;;;20.92;100.00
42621;BME280;28252;53.336;-6.298;2023-04-07T01:10:40;101526.91;;;20.92;100.00
42621;BME280;28252;53.336;-6.298;2023-04-07T01:12:02;101525.22;;;20.91;100.00
42621;BME280;28252;53.336;-6.298;2023-04-07T01:12:43;101527.94;;;20.91;100.00
42621;BME280;28252;53.336;-6.298;2023-04-07T01:14:09;101532.31;;;20.92;100.00
42621;BME280;28252;53.336;-6.298;2023-04-07T01:14:51;101530.63;;;20.91;100.00
42621;BME280;28252;53.336;-6.298;2023-04-07T01:15:39;101530.63;;;20.91;100.00
42621;BME280;28252;53.336;-6.298;2023-04-07T01:16:18;101532.31;;;20.92;100.00
42621;BME280;28252;53.336;-6.298;2023-04-07T01:16:59;101530.63;;;20.91;100.00
42621;BME280;28252;53.336;-6.298;2023-04-07T01:17:36;101526.91;;;20.92;100.00
42621;BME280;28252;53.336;-6.298;2023-04-07T01:18:16;101525.22;;;20.91;100.00
42621;BME280;28252;53.336;-6.298;2023-04-07T01:18:57;101529.59;;;20.92;100.00
42621;BME280;28252;53.336;-6.298;2023-04-07T01:19:38;101526.91;;;20.92;100.00
42621;BME280;28252;53.336;-6.298;2023-04-07T01:20:16;101526.22;;;20.90;100.00
42621;BME280;28252;53.336;-6.298;2023-04-07T01:20:52;101529.75;;;20.90;100.00
42621;BME280;28252;53.336;-6.298;2023-04-07T01:21:28;101532.47;;;20.90;100.00
42621;BME280;28252;53.336;-6.298;2023-04-07T01:22:12;101534.34;;;20.90;100.00
42621;BME280;28252;53.336;-6.298;2023-04-07T01:22:46;101533.50;;;20.89;100.00
42621;BME280;28252;53.336;-6.298;2023-04-07T01:23:24;101523.66;;;20.88;100.00
42621;BME280;28252;53.336;-6.298;2023-04-07T01:25:00;101529.22;;;20.87;100.00
42621;BME280;28252;53.336;-6.298;2023-04-07T01:26:27;101523.81;;;20.87;100.00
42621;BME280;28252;53.336;-6.298;2023-04-07T01:27:04;101527.53;;;20.86;100.00
42621;BME280;28252;53.336;-6.298;2023-04-07T01:27:48;101531.94;;;20.87;100.00
42621;BME280;28252;53.336;-6.298;2023-04-07T01:28:32;101531.09;;;20.86;100.00
42621;BME280;28252;53.336;-6.298;2023-04-07T01:29:28;101532.97;;;20.86;100.00
42621;BME280;28252;53.336;-6.298;2023-04-07T01:30:05;101538.38;;;20.86;100.00
42621;BME280;28252;53.336;-6.298;2023-04-07T01:30:47;101532.09;;;20.85;100.00
42621;BME280;28252;53.336;-6.298;2023-04-07T01:31:24;101527.53;;;20.86;100.00
42621;BME280;28252;53.336;-6.298;2023-04-07T01:32:01;101529.38;;;20.85;100.00
42621;BME280;28252;53.336;-6.298;2023-04-07T01:32:32;101526.66;;;20.85;100.00
42621;BME280;28252;53.336;-6.298;2023-04-07T01:33:10;101537.66;;;20.84;100.00
42621;BME280;28252;53.336;-6.298;2023-04-07T01:33:47;101525.81;;;20.85;100.00
42621;BME280;28252;53.336;-6.298;2023-04-07T01:34:19;101530.41;;;20.84;100.00
42621;BME280;28252;53.336;-6.298;2023-04-07T01:34:55;101524.09;;;20.84;100.00
42621;BME280;28252;53.336;-6.298;2023-04-07T01:35:34;101524.09;;;20.84;100.00
42621;BME280;28252;53.336;-6.298;2023-04-07T01:36:09;101517.84;;;20.83;100.00
42621;BME280;28252;53.336;-6.298;2023-04-07T01:36:44;101522.44;;;20.83;100.00
42621;BME280;28252;53.336;-6.298;2023-04-07T01:37:20;101518.69;;;20.84;100.00
42621;BME280;28252;53.336;-6.298;2023-04-07T01:38:01;101521.41;;;20.84;100.00
42621;BME280;28252;53.336;-6.298;2023-04-07T01:38:37;101522.44;;;20.83;100.00
42621;BME280;28252;53.336;-6.298;2023-04-07T01:39:11;101521.41;;;20.84;100.00
42621;BME280;28252;53.336;-6.298;2023-04-07T01:39:45;101512.44;;;20.83;100.00
42621;BME280;28252;53.336;-6.298;2023-04-07T01:40:22;101522.44;;;20.83;100.00
42621;BME280;28252;53.336;-6.298;2023-04-07T01:40:56;101523.41;;;20.82;100.00
42621;BME280;28252;53.336;-6.298;2023-04-07T01:41:33;101519.88;;;20.81;100.00
42621;BME280;28252;53.336;-6.298;2023-04-07T01:42:08;101528.00;;;20.81;100.00
42621;BME280;28252;53.336;-6.298;2023-04-07T01:42:40;101530.69;;;20.81;100.00
42621;BME280;28252;53.336;-6.298;2023-04-07T01:44:09;101519.88;;;20.81;100.00
42621;BME280;28252;53.336;-6.298;2023-04-07T01:44:43;101524.44;;;20.81;100.00
42621;BME280;28252;53.336;-6.298;2023-04-07T01:45:17;101525.28;;;20.81;100.00
42621;BME280;28252;53.336;-6.298;2023-04-07T01:45:53;101524.44;;;20.81;100.00
42621;BME280;28252;53.336;-6.298;2023-04-07T01:46:30;101534.41;;;20.80;100.00
42621;BME280;28252;53.336;-6.298;2023-04-07T01:47:07;101518.16;;;20.80;100.00
42621;BME280;28252;53.336;-6.298;2023-04-07T01:47:41;101526.13;;;20.82;100.00
42621;BME280;28252;53.336;-6.298;2023-04-07T01:48:15;101527.16;;;20.81;100.00
42621;BME280;28252;53.336;-6.298;2023-04-07T01:50:02;101526.44;;;20.79;100.00
42621;BME280;28252;53.336;-6.298;2023-04-07T01:50:36;101531.84;;;20.79;100.00
42621;BME280;28252;53.336;-6.298;2023-04-07T01:51:08;101529.13;;;20.79;100.00
42621;BME280;28252;53.336;-6.298;2023-04-07T01:51:46;101531.84;;;20.79;100.00
42621;BME280;28252;53.336;-6.298;2023-04-07T01:52:26;101527.31;;;20.79;100.00
42621;BME280;28252;53.336;-6.298;2023-04-07T01:52:59;101532.72;;;20.79;100.00
42621;BME280;28252;53.336;-6.298;2023-04-07T01:53:34;101530.00;;;20.79;100.00
42621;BME280;28252;53.336;-6.298;2023-04-07T01:54:08;101531.84;;;20.79;100.00
42621;BME280;28252;53.336;-6.298;2023-04-07T01:54:44;101527.31;;;20.79;100.00
42621;BME280;28252;53.336;-6.298;2023-04-07T01:55:17;101526.44;;;20.79;100.00
42621;BME280;28252;53.336;-6.298;2023-04-07T01:56:05;101533.56;;;20.80;100.00
42621;BME280;28252;53.336;-6.298;2023-04-07T01:56:38;101524.59;;;20.79;100.00
42621;BME280;28252;53.336;-6.298;2023-04-07T01:57:12;101530.84;;;20.80;100.00
42621;BME280;28252;53.336;-6.298;2023-04-07T01:57:45;101526.44;;;20.79;100.00
42621;BME280;28252;53.336;-6.298;2023-04-07T01:58:22;101530.00;;;20.79;100.00
42621;BME280;28252;53.336;-6.298;2023-04-07T01:58:55;101526.44;;;20.79;100.00
42621;BME280;28252;53.336;-6.298;2023-04-07T01:59:28;101531.84;;;20.79;100.00
42621;BME280;28252;53.336;-6.298;2023-04-07T02:00:04;101530.84;;;20.80;100.00
42621;BME280;28252;53.336;-6.298;2023-04-07T02:00:47;101526.44;;;20.79;100.00
42621;BME280;28252;53.336;-6.298;2023-04-07T02:01:30;101526.44;;;20.79;100.00
42621;BME280;28252;53.336;-6.298;2023-04-07T02:02:05;101528.16;;;20.80;100.00
42621;BME280;28252;53.336;-6.298;2023-04-07T02:02:40;101526.44;;;20.79;100.00
42621;BME280;28252;53.336;-6.298;2023-04-07T02:03:22;101520.03;;;20.80;100.00
42621;BME280;28252;53.336;-6.298;2023-04-07T02:04:01;101523.56;;;20.80;100.00
42621;BME280;28252;53.336;-6.298;2023-04-07T02:04:41;101535.28;;;20.81;100.00
42621;BME280;28252;53.336;-6.298;2023-04-07T02:05:19;101526.13;;;20.82;100.00
42621;BME280;28252;53.336;-6.298;2023-04-07T02:05:58;101521.59;;;20.82;100.00
42621;BME280;28252;53.336;-6.298;2023-04-07T02:06:34;101521.41;;;20.84;100.00
42621;BME280;28252;53.336;-6.298;2023-04-07T02:07:14;101523.13;;;20.85;100.00
42621;BME280;28252;53.336;-6.298;2023-04-07T02:08:01;101517.56;;;20.86;100.00
42621;BME280;28252;53.336;-6.298;2023-04-07T02:08:35;101522.97;;;20.86;100.00
42621;BME280;28252;53.336;-6.298;2023-04-07T02:09:12;101522.97;;;20.86;100.00
42621;BME280;28252;53.336;-6.298;2023-04-07T02:09:47;101529.22;;;20.87;100.00
42621;BME280;28252;53.336;-6.298;2023-04-07T02:10:21;101529.06;;;20.88;100.00
42621;BME280;28252;53.336;-6.298;2023-04-07T02:10:54;101522.81;;;20.88;100.00
42621;BME280;28252;53.336;-6.298;2023-04-07T02:11:28;101521.78;;;20.89;100.00
42621;BME280;28252;53.336;-6.298;2023-04-07T02:12:06;101525.53;;;20.88;100.00
42621;BME280;28252;53.336;-6.298;2023-04-07T02:12:41;101512.81;;;20.88;100.00
42621;BME280;28252;53.336;-6.298;2023-04-07T02:13:20;101521.78;;;20.89;100.00
42621;BME280;28252;53.336;-6.298;2023-04-07T02:13:56;101523.50;;;20.90;100.00
42621;BME280;28252;53.336;-6.298;2023-04-07T02:14:30;101523.50;;;20.90;100.00
42621;BME280;28252;53.336;-6.298;2023-04-07T02:15:12;101518.09;;;20.90;100.00
42621;BME280;28252;53.336;-6.298;2023-04-07T02:15:47;101517.25;;;20.89;100.00
42621;BME280;28252;53.336;-6.298;2023-04-07T02:16:23;101518.94;;;20.90;100.00
42621;BME280;28252;53.336;-6.298;2023-04-07T02:16:55;101518.94;;;20.90;100.00
42621;BME280;28252;53.336;-6.298;2023-04-07T02:17:31;101519.81;;;20.91;100.00
42621;BME280;28252;53.336;-6.298;2023-04-07T02:18:09;101518.09;;;20.90;100.00
42621;BME280;28252;53.336;-6.298;2023-04-07T02:18:47;101513.50;;;20.90;100.00
42621;BME280;28252;53.336;-6.298;2023-04-07T02:19:20;101517.25;;;20.89;100.00
42621;BME280;28252;53.336;-6.298;2023-04-07T02:19:54;101517.25;;;20.89;100.00
42621;BME280;28252;53.336;-6.298;2023-04-07T02:20:34;101518.09;;;20.90;100.00
42621;BME280;28252;53.336;-6.298;2023-04-07T02:21:10;101521.63;;;20.90;100.00
42621;BME280;28252;53.336;-6.298;2023-04-07T02:21:49;101524.34;;;20.90;100.00
42621;BME280;28252;53.336;-6.298;2023-04-07T02:22:21;101519.81;;;20.91;100.00
42621;BME280;28252;53.336;-6.298;2023-04-07T02:22:52;101517.09;;;20.91;100.00
42621;BME280;28252;53.336;-6.298;2023-04-07T02:23:29;101526.22;;;20.90;100.00
42621;BME280;28252;53.336;-6.298;2023-04-07T02:24:05;101527.94;;;20.91;100.00
42621;BME280;28252;53.336;-6.298;2023-04-07T02:24:40;101516.22;;;20.90;100.00
42621;BME280;28252;53.336;-6.298;2023-04-07T02:25:23;101525.22;;;20.91;100.00
42621;BME280;28252;53.336;-6.298;2023-04-07T02:25:57;101521.63;;;20.90;100.00
42621;BME280;28252;53.336;-6.298;2023-04-07T02:26:36;101517.25;;;20.89;100.00
42621;BME280;28252;53.336;-6.298;2023-04-07T02:27:13;101517.25;;;20.89;100.00
42621;BME280;28252;53.336;-6.298;2023-04-07T02:27:46;101521.63;;;20.90;100.00
42621;BME280;28252;53.336;-6.298;2023-04-07T02:28:20;101515.53;;;20.88;100.00
42621;BME280;28252;53.336;-6.298;2023-04-07T02:28:53;101516.38;;;20.89;100.00
42621;BME280;28252;53.336;-6.298;2023-04-07T02:29:26;101512.81;;;20.88;100.00
42621;BME280;28252;53.336;-6.298;2023-04-07T02:29:57;101516.38;;;20.89;100.00
42621;BME280;28252;53.336;-6.298;2023-04-07T02:30:30;101523.66;;;20.88;100.00
42621;BME280;28252;53.336;-6.298;2023-04-07T02:31:02;101520.09;;;20.88;100.00
42621;BME280;28252;53.336;-6.298;2023-04-07T02:31:35;101517.41;;;20.88;100.00
42621;BME280;28252;53.336;-6.298;2023-04-07T02:32:13;101522.81;;;20.88;100.00
42621;BME280;28252;53.336;-6.298;2023-04-07T02:32:46;101519.25;;;20.87;100.00
42621;BME280;28252;53.336;-6.298;2023-04-07T02:33:19;101517.56;;;20.86;100.00
42621;BME280;28252;53.336;-6.298;2023-04-07T02:33:53;101521.97;;;20.87;100.00
42621;BME280;28252;53.336;-6.298;2023-04-07T02:34:24;101523.81;;;20.87;100.00
42621;BME280;28252;53.336;-6.298;2023-04-07T02:34:55;101519.41;;;20.86;100.00
42621;BME280;28252;53.336;-6.298;2023-04-07T02:35:29;101522.13;;;20.86;100.00
42621;BME280;28252;53.336;-6.298;2023-04-07T02:36:07;101516.72;;;20.86;100.00
42621;BME280;28252;53.336;-6.298;2023-04-07T02:36:38;101520.25;;;20.86;100.00
42621;BME280;28252;53.336;-6.298;2023-04-07T02:37:15;101523.81;;;20.87;100.00
42621;BME280;28252;53.336;-6.298;2023-04-07T02:37:46;101528.38;;;20.86;100.00
42621;BME280;28252;53.336;-6.298;2023-04-07T02:38:20;101515.69;;;20.87;100.00
42621;BME280;28252;53.336;-6.298;2023-04-07T02:38:55;101524.84;;;20.86;100.00
42621;BME280;28252;53.336;-6.298;2023-04-07T02:39:28;101514.84;;;20.86;100.00
42621;BME280;28252;53.336;-6.298;2023-04-07T02:40:05;101520.25;;;20.86;100.00
42621;BME280;28252;53.336;-6.298;2023-04-07T02:40:41;101525.69;;;20.86;100.00
42621;BME280;28252;53.336;-6.298;2023-04-07T02:41:19;101522.97;;;20.86;100.00
42621;BME280;28252;53.336;-6.298;2023-04-07T02:41:53;101525.69;;;20.86;100.00
42621;BME280;28252;53.336;-6.298;2023-04-07T02:42:26;101522.13;;;20.86;100.00
42621;BME280;28252;53.336;-6.298;2023-04-07T02:43:02;101524.84;;;20.86;100.00
42621;BME280;28252;53.336;-6.298;2023-04-07T02:43:34;101522.13;;;20.86;100.00
42621;BME280;28252;53.336;-6.298;2023-04-07T02:44:08;101518.53;;;20.85;100.00
42621;BME280;28252;53.336;-6.298;2023-04-07T02:44:46;101520.41;;;20.85;100.00
42621;BME280;28252;53.336;-6.298;2023-04-07T02:45:17;101512.28;;;20.85;100.00
42621;BME280;28252;53.336;-6.298;2023-04-07T02:45:55;101519.41;;;20.86;100.00
42621;BME280;28252;53.336;-6.298;2023-04-07T02:46:30;101515.84;;;20.85;100.00
42621;BME280;28252;53.336;-6.298;2023-04-07T02:47:05;101520.41;;;20.85;100.00
42621;BME280;28252;53.336;-6.298;2023-04-07T02:47:59;101513.13;;;20.85;100.00
42621;BME280;28252;53.336;-6.298;2023-04-07T02:48:33;101516.72;;;20.86;100.00
42621;BME280;28252;53.336;-6.298;2023-04-07T02:49:06;101522.13;;;20.86;100.00
42621;BME280;28252;53.336;-6.298;2023-04-07T02:49:42;101517.56;;;20.86;100.00
42621;BME280;28252;53.336;-6.298;2023-04-07T02:50:15;101522.97;;;20.86;100.00
42621;BME280;28252;53.336;-6.298;2023-04-07T02:50:51;101523.81;;;20.87;100.00
42621;BME280;28252;53.336;-6.298;2023-04-07T02:51:22;101525.69;;;20.86;100.00
42621;BME280;28252;53.336;-6.298;2023-04-07T02:51:53;101518.41;;;20.87;100.00
42621;BME280;28252;53.336;-6.298;2023-04-07T02:52:26;101518.41;;;20.87;100.00
42621;BME280;28252;53.336;-6.298;2023-04-07T02:52:58;101521.09;;;20.87;100.00
42621;BME280;28252;53.336;-6.298;2023-04-07T02:53:29;101523.81;;;20.87;100.00
42621;BME280;28252;53.336;-6.298;2023-04-07T02:54:02;101519.25;;;20.87;100.00
42621;BME280;28252;53.336;-6.298;2023-04-07T02:54:35;101521.97;;;20.87;100.00
42621;BME280;28252;53.336;-6.298;2023-04-07T02:55:09;101522.97;;;20.86;100.00
42621;BME280;28252;53.336;-6.298;2023-04-07T02:55:46;101518.41;;;20.87;100.00
42621;BME280;28252;53.336;-6.298;2023-04-07T02:56:21;101516.72;;;20.86;100.00
42621;BME280;28252;53.336;-6.298;2023-04-07T02:56:57;101516.72;;;20.86;100.00
42621;BME280;28252;53.336;-6.298;2023-04-07T02:57:32;101509.59;;;20.85;100.00
42621;BME280;28252;53.336;-6.298;2023-04-07T02:58:06;101512.28;;;20.85;100.00
42621;BME280;28252;53.336;-6.298;2023-04-07T03:02:40;101516.72;;;20.86;100.00
42621;BME280;28252;53.336;-6.298;2023-04-07T03:03:15;101514.16;;;20.84;100.00
42621;BME280;28252;53.336;-6.298;2023-04-07T03:04:01;101508.75;;;20.84;100.00
42621;BME280;28252;53.336;-6.298;2023-04-07T03:04:32;101507.88;;;20.84;100.00
42621;BME280;28252;53.336;-6.298;2023-04-07T03:05:11;101508.75;;;20.84;100.00
42621;BME280;28252;53.336;-6.298;2023-04-07T03:05:44;101510.56;;;20.84;100.00
42621;BME280;28252;53.336;-6.298;2023-04-07T03:06:19;101516.72;;;20.86;100.00
42621;BME280;28252;53.336;-6.298;2023-04-07T03:07:13;101515.84;;;20.85;100.00
42621;BME280;28252;53.336;-6.298;2023-04-07T03:07:46;101517.56;;;20.86;100.00
42621;BME280;28252;53.336;-6.298;2023-04-07T03:08:22;101516.72;;;20.86;100.00
42621;BME280;28252;53.336;-6.298;2023-04-07T03:08:53;101511.28;;;20.86;100.00
42621;BME280;28252;53.336;-6.298;2023-04-07T03:09:32;101511.28;;;20.86;100.00
42621;BME280;28252;53.336;-6.298;2023-04-07T03:10:03;101517.56;;;20.86;100.00
42621;BME280;28252;53.336;-6.298;2023-04-07T03:10:37;101512.97;;;20.87;100.00
42621;BME280;28252;53.336;-6.298;2023-04-07T03:11:15;101517.41;;;20.88;100.00
42621;BME280;28252;53.336;-6.298;2023-04-07T03:11:48;101512.97;;;20.87;100.00
42621;BME280;28252;53.336;-6.298;2023-04-07T03:12:23;101516.56;;;20.87;100.00
42621;BME280;28252;53.336;-6.298;2023-04-07T03:12:59;101514.69;;;20.88;100.00
42621;BME280;28252;53.336;-6.298;2023-04-07T03:13:33;101509.28;;;20.88;100.00